ESNU/UME METAR and TAF weather

Enter ICAO airport designator
Station Type Date Time Source
ESNU METAR 2021/03/02 16:50 UTC NOAA

ESNU 021650Z 26008KT CAVOK 05/M03 Q1021


Station Type Date Time Source
ESNU Decoded METAR 2021/03/02 16:50 UTC NOAA

Umea Flygplats, Sweden (ESNU) 63-48N 020-17E 14M
Mar 02, 2021 - 11:50 AM EST / 2021.03.02 1650 UTC
Wind: from the W (260 degrees) at 9 MPH (8 KT):0
Visibility: greater than 7 mile(s):0
Temperature: 41 F (5 C)
Dew Point: 26 F (-3 C)
Relative Humidity: 56%
Pressure (altimeter): 30.15 in. Hg (1021 hPa)
ob: ESNU 021650Z 26008KT CAVOK 05/M03 Q1021
cycle: 17

Station Type Date Time Source
ESNU TAF 2019/10/24 00:55 UTC NOAA

TAF
AMD ESNU 242348Z 2500/2524 16003KT 0200 FG VV002 PROB40 2500/2509 8000 -RA BKN005

Example: see airport list